sensor_id;sensor_type;location;lat;lon;timestamp;pressure;altitude;pressure_sealevel;temperature;humidity
77165;BME280;66140;50.280;18.660;2023-03-01T05:00:30;100288.19;;;-5.79;93.25
77165;BME280;66140;50.280;18.660;2023-03-01T05:02:59;100281.22;;;-5.82;92.98
77165;BME280;66140;50.280;18.660;2023-03-01T05:05:28;100280.34;;;-5.82;92.83
77165;BME280;66140;50.280;18.660;2023-03-01T05:07:57;100263.06;;;-5.88;92.88
77165;BME280;66140;50.280;18.660;2023-03-01T05:10:24;100264.72;;;-5.91;92.48
77165;BME280;66140;50.280;18.660;2023-03-01T05:12:50;100261.22;;;-5.93;92.85
77165;BME280;66140;50.280;18.660;2023-03-01T05:15:17;100260.38;;;-5.92;93.20
77165;BME280;66140;50.280;18.660;2023-03-01T05:17:43;100267.38;;;-5.85;93.18
77165;BME280;66140;50.280;18.660;2023-03-01T05:20:09;100270.88;;;-5.83;93.30
77165;BME280;66140;50.280;18.660;2023-03-01T05:22:35;100271.81;;;-5.80;92.94
77165;BME280;66140;50.280;18.660;2023-03-01T05:25:01;100259.59;;;-5.87;93.26
77165;BME280;66140;50.280;18.660;2023-03-01T05:27:27;100272.59;;;-5.82;93.09
77165;BME280;66140;50.280;18.660;2023-03-01T05:29:52;100262.19;;;-5.88;92.82
77165;BME280;66140;50.280;18.660;2023-03-01T05:32:18;100256.97;;;-5.91;92.67
77165;BME280;66140;50.280;18.660;2023-03-01T05:34:43;100260.47;;;-5.88;93.17
77165;BME280;66140;50.280;18.660;2023-03-01T05:37:11;100267.28;;;-5.91;92.64
77165;BME280;66140;50.280;18.660;2023-03-01T05:39:37;100278.56;;;-5.88;93.14
77165;BME280;66140;50.280;18.660;2023-03-01T05:42:03;100270.81;;;-5.86;93.58
77165;BME280;66140;50.280;18.660;2023-03-01T05:44:29;100268.25;;;-5.85;92.63
77165;BME280;66140;50.280;18.660;2023-03-01T05:46:54;100274.47;;;-5.77;93.46
77165;BME280;66140;50.280;18.660;2023-03-01T05:49:20;100271.13;;;-5.71;93.17
77165;BME280;66140;50.280;18.660;2023-03-01T05:51:50;100256.41;;;-5.74;92.83
77165;BME280;66140;50.280;18.660;2023-03-01T05:54:16;100266.78;;;-5.72;92.92
77165;BME280;66140;50.280;18.660;2023-03-01T05:56:42;100271.13;;;-5.71;92.95
77165;BME280;66140;50.280;18.660;2023-03-01T05:59:08;100274.50;;;-5.74;93.30
77165;BME280;66140;50.280;18.660;2023-03-01T06:01:35;100284.06;;;-5.71;92.87
77165;BME280;66140;50.280;18.660;2023-03-01T06:04:01;100275.38;;;-5.73;93.31
77165;BME280;66140;50.280;18.660;2023-03-01T06:06:26;100286.75;;;-5.65;93.32
77165;BME280;66140;50.280;18.660;2023-03-01T06:08:52;100289.47;;;-5.59;93.27
77165;BME280;66140;50.280;18.660;2023-03-01T06:11:19;100290.50;;;-5.51;93.46
77165;BME280;66140;50.280;18.660;2023-03-01T06:13:45;100280.19;;;-5.48;93.51
77165;BME280;66140;50.280;18.660;2023-03-01T06:16:12;100291.56;;;-5.40;93.67
77165;BME280;66140;50.280;18.660;2023-03-01T06:18:37;100277.91;;;-5.31;94.04
77165;BME280;66140;50.280;18.660;2023-03-01T06:21:04;100290.25;;;-5.16;93.82
77165;BME280;66140;50.280;18.660;2023-03-01T06:23:30;100285.31;;;-5.03;92.81
77165;BME280;66140;50.280;18.660;2023-03-01T06:25:55;100293.38;;;-4.88;92.38
77165;BME280;66140;50.280;18.660;2023-03-01T06:28:21;100290.09;;;-4.76;92.25
77165;BME280;66140;50.280;18.660;2023-03-01T06:30:47;100289.41;;;-4.66;91.38
77165;BME280;66140;50.280;18.660;2023-03-01T06:33:13;100297.34;;;-4.54;91.81
77165;BME280;66140;50.280;18.660;2023-03-01T06:35:38;100287.06;;;-4.51;91.95
77165;BME280;66140;50.280;18.660;2023-03-01T06:38:05;100298.41;;;-4.41;92.31
77165;BME280;66140;50.280;18.660;2023-03-01T06:40:31;100308.88;;;-4.35;91.72
77165;BME280;66140;50.280;18.660;2023-03-01T06:42:57;100296.78;;;-4.34;91.10
77165;BME280;66140;50.280;18.660;2023-03-01T06:45:24;100294.34;;;-4.25;91.51
77165;BME280;66140;50.280;18.660;2023-03-01T06:47:50;100283.16;;;-4.23;91.92
77165;BME280;66140;50.280;18.660;2023-03-01T06:50:16;100293.69;;;-4.11;91.38
77165;BME280;66140;50.280;18.660;2023-03-01T06:52:42;100285.06;;;-4.10;90.40
77165;BME280;66140;50.280;18.660;2023-03-01T06:55:10;100293.00;;;-3.99;90.74
77165;BME280;66140;50.280;18.660;2023-03-01T06:57:36;100293.03;;;-3.94;90.06
77165;BME280;66140;50.280;18.660;2023-03-01T07:00:03;100280.13;;;-3.90;90.80
77165;BME280;66140;50.280;18.660;2023-03-01T07:02:29;100286.28;;;-3.83;90.54
77165;BME280;66140;50.280;18.660;2023-03-01T07:04:54;100275.09;;;-3.79;90.46
77165;BME280;66140;50.280;18.660;2023-03-01T07:07:20;100285.56;;;-3.70;90.97
77165;BME280;66140;50.280;18.660;2023-03-01T07:09:46;100279.59;;;-3.65;90.68
77165;BME280;66140;50.280;18.660;2023-03-01T07:12:13;100288.34;;;-3.56;90.24
77165;BME280;66140;50.280;18.660;2023-03-01T07:14:38;100281.50;;;-3.50;89.35
77165;BME280;66140;50.280;18.660;2023-03-01T07:17:04;100275.56;;;-3.41;89.44
77165;BME280;66140;50.280;18.660;2023-03-01T07:19:29;100281.78;;;-3.27;90.00
77165;BME280;66140;50.280;18.660;2023-03-01T07:21:55;100271.53;;;-3.12;89.28
77165;BME280;66140;50.280;18.660;2023-03-01T07:24:21;100267.38;;;-2.93;89.18
77165;BME280;66140;50.280;18.660;2023-03-01T07:26:50;100266.75;;;-2.62;87.97
77165;BME280;66140;50.280;18.660;2023-03-01T07:29:16;100259.97;;;-2.43;85.99
77165;BME280;66140;50.280;18.660;2023-03-01T07:31:42;100259.28;;;-2.19;85.34
77165;BME280;66140;50.280;18.660;2023-03-01T07:34:07;100264.66;;;-1.83;83.89
77165;BME280;66140;50.280;18.660;2023-03-01T07:36:33;100259.56;;;-1.52;83.34
77165;BME280;66140;50.280;18.660;2023-03-01T07:38:58;100266.56;;;-1.33;82.13
77165;BME280;66140;50.280;18.660;2023-03-01T07:41:24;100261.41;;;-1.18;80.78
77165;BME280;66140;50.280;18.660;2023-03-01T07:43:49;100257.06;;;-1.14;80.83
77165;BME280;66140;50.280;18.660;2023-03-01T07:46:15;100244.91;;;-1.12;79.72
77165;BME280;66140;50.280;18.660;2023-03-01T07:48:40;100233.66;;;-0.98;80.01
77165;BME280;66140;50.280;18.660;2023-03-01T07:51:07;100241.47;;;-0.81;78.59
77165;BME280;66140;50.280;18.660;2023-03-01T07:53:33;100235.38;;;-0.68;76.22
77165;BME280;66140;50.280;18.660;2023-03-01T07:58:27;100228.41;;;-0.48;75.04
77165;BME280;66140;50.280;18.660;2023-03-01T08:00:52;100217.97;;;-0.34;73.94
77165;BME280;66140;50.280;18.660;2023-03-01T08:03:18;100230.97;;;-0.14;72.26
77165;BME280;66140;50.280;18.660;2023-03-01T08:05:43;100222.22;;;0.05;71.38
77165;BME280;66140;50.280;18.660;2023-03-01T08:08:08;100236.94;;;0.15;72.22
77165;BME280;66140;50.280;18.660;2023-03-01T08:10:34;100225.63;;;0.19;72.16
77165;BME280;66140;50.280;18.660;2023-03-01T08:12:59;100229.06;;;0.27;74.40
77165;BME280;66140;50.280;18.660;2023-03-01T08:15:24;100227.28;;;0.42;71.58
77165;BME280;66140;50.280;18.660;2023-03-01T08:17:50;100227.25;;;0.48;72.17
77165;BME280;66140;50.280;18.660;2023-03-01T08:20:16;100232.31;;;0.72;69.95
77165;BME280;66140;50.280;18.660;2023-03-01T08:22:41;100234.81;;;0.92;66.86
77165;BME280;66140;50.280;18.660;2023-03-01T08:25:07;100225.16;;;1.01;68.75
77165;BME280;66140;50.280;18.660;2023-03-01T08:27:33;100222.47;;;1.09;69.73
77165;BME280;66140;50.280;18.660;2023-03-01T08:29:58;100219.84;;;1.13;65.90
77165;BME280;66140;50.280;18.660;2023-03-01T08:32:24;100217.25;;;1.10;65.27
77165;BME280;66140;50.280;18.660;2023-03-01T08:34:49;100205.00;;;1.15;65.54
77165;BME280;66140;50.280;18.660;2023-03-01T08:37:14;100217.13;;;1.26;65.46
77165;BME280;66140;50.280;18.660;2023-03-01T08:39:40;100218.88;;;1.27;65.94
77165;BME280;66140;50.280;18.660;2023-03-01T08:42:05;100217.94;;;1.31;66.87
77165;BME280;66140;50.280;18.660;2023-03-01T08:44:31;100212.59;;;1.43;66.28
77165;BME280;66140;50.280;18.660;2023-03-01T08:46:56;100213.34;;;1.57;61.40
77165;BME280;66140;50.280;18.660;2023-03-01T08:49:22;100219.28;;;1.74;61.20
77165;BME280;66140;50.280;18.660;2023-03-01T08:51:49;100214.84;;;1.79;60.05
77165;BME280;66140;50.280;18.660;2023-03-01T08:54:17;100203.56;;;1.74;60.20
77165;BME280;66140;50.280;18.660;2023-03-01T08:56:43;100199.19;;;1.78;60.32
77165;BME280;66140;50.280;18.660;2023-03-01T08:59:10;100203.50;;;1.80;60.78
77165;BME280;66140;50.280;18.660;2023-03-01T09:01:36;100197.34;;;1.86;60.13
77165;BME280;66140;50.280;18.660;2023-03-01T09:04:02;100191.16;;;1.94;58.78
77165;BME280;66140;50.280;18.660;2023-03-01T09:06:31;100192.72;;;2.08;58.26
77165;BME280;66140;50.280;18.660;2023-03-01T09:08:58;100180.59;;;2.04;57.02
77165;BME280;66140;50.280;18.660;2023-03-01T09:11:24;100189.25;;;2.07;58.67
77165;BME280;66140;50.280;18.660;2023-03-01T09:13:49;100198.66;;;2.23;57.76
77165;BME280;66140;50.280;18.660;2023-03-01T09:16:16;100196.84;;;2.30;57.88
77165;BME280;66140;50.280;18.660;2023-03-01T09:18:43;100189.00;;;2.27;56.56
77165;BME280;66140;50.280;18.660;2023-03-01T09:21:12;100189.00;;;2.27;58.12
77165;BME280;66140;50.280;18.660;2023-03-01T09:23:40;100181.22;;;2.22;58.59
77165;BME280;66140;50.280;18.660;2023-03-01T09:26:08;100188.06;;;2.31;56.85
77165;BME280;66140;50.280;18.660;2023-03-01T09:28:35;100189.00;;;2.27;58.17
77165;BME280;66140;50.280;18.660;2023-03-01T09:31:01;100195.13;;;2.26;58.89
77165;BME280;66140;50.280;18.660;2023-03-01T09:33:30;100192.47;;;2.29;57.25
77165;BME280;66140;50.280;18.660;2023-03-01T09:36:01;100189.88;;;2.27;57.81
77165;BME280;66140;50.280;18.660;2023-03-01T09:38:26;100199.44;;;2.30;57.42
77165;BME280;66140;50.280;18.660;2023-03-01T09:40:52;100184.53;;;2.35;56.79
77165;BME280;66140;50.280;18.660;2023-03-01T09:46:05;100201.03;;;2.43;55.20
77165;BME280;66140;50.280;18.660;2023-03-01T09:48:42;100193.19;;;2.40;54.64
77165;BME280;66140;50.280;18.660;2023-03-01T09:51:08;100190.47;;;2.49;54.96
77165;BME280;66140;50.280;18.660;2023-03-01T09:53:37;100188.63;;;2.54;55.40
77165;BME280;66140;50.280;18.660;2023-03-01T09:56:19;100192.06;;;2.59;54.12
77165;BME280;66140;50.280;18.660;2023-03-01T10:02:13;100195.28;;;2.76;53.47
77165;BME280;66140;50.280;18.660;2023-03-01T10:09:45;100186.75;;;2.64;53.88
77165;BME280;66140;50.280;18.660;2023-03-01T10:12:15;100187.50;;;2.70;54.44
77165;BME280;66140;50.280;18.660;2023-03-01T10:14:55;100177.97;;;2.66;56.98
77165;BME280;66140;50.280;18.660;2023-03-01T10:17:39;100181.41;;;2.70;54.82
77165;BME280;66140;50.280;18.660;2023-03-01T10:20:17;100179.63;;;2.73;54.54
77165;BME280;66140;50.280;18.660;2023-03-01T10:22:43;100165.44;;;2.87;55.22
77165;BME280;66140;50.280;18.660;2023-03-01T10:25:14;100173.25;;;2.88;54.32
77165;BME280;66140;50.280;18.660;2023-03-01T10:28:17;100166.38;;;2.82;53.82
77165;BME280;66140;50.280;18.660;2023-03-01T10:30:43;100156.72;;;2.85;54.46
77165;BME280;66140;50.280;18.660;2023-03-01T10:33:30;100166.31;;;2.87;54.59
77165;BME280;66140;50.280;18.660;2023-03-01T10:35:56;100165.44;;;2.87;54.66
77165;BME280;66140;50.280;18.660;2023-03-01T10:38:22;100155.72;;;2.93;55.69
77165;BME280;66140;50.280;18.660;2023-03-01T10:41:04;100162.31;;;3.17;53.86
77165;BME280;66140;50.280;18.660;2023-03-01T10:43:49;100160.38;;;3.28;53.00
77165;BME280;66140;50.280;18.660;2023-03-01T10:46:35;100157.59;;;3.37;52.45
77165;BME280;66140;50.280;18.660;2023-03-01T10:49:18;100161.16;;;3.33;53.10
77165;BME280;66140;50.280;18.660;2023-03-01T10:51:47;100145.34;;;3.39;52.84
77165;BME280;66140;50.280;18.660;2023-03-01T10:56:51;100154.00;;;3.41;53.29
77165;BME280;66140;50.280;18.660;2023-03-01T10:59:26;100145.34;;;3.39;53.78
77165;BME280;66140;50.280;18.660;2023-03-01T11:02:30;100139.97;;;3.45;53.76
77165;BME280;66140;50.280;18.660;2023-03-01T11:05:39;100131.81;;;3.59;53.63
77165;BME280;66140;50.280;18.660;2023-03-01T11:07:54;100136.03;;;3.68;53.53
77165;BME280;66140;50.280;18.660;2023-03-01T11:10:30;100126.31;;;3.73;52.40
77165;BME280;66140;50.280;18.660;2023-03-01T11:13:16;100119.91;;;3.86;52.83
77165;BME280;66140;50.280;18.660;2023-03-01T11:15:43;100118.00;;;3.94;52.07
77165;BME280;66140;50.280;18.660;2023-03-01T11:18:22;100110.13;;;3.94;52.41
77165;BME280;66140;50.280;18.660;2023-03-01T11:20:49;100112.63;;;4.00;53.38
77165;BME280;66140;50.280;18.660;2023-03-01T11:23:17;100111.72;;;4.02;51.58
77165;BME280;66140;50.280;18.660;2023-03-01T11:26:07;100098.53;;;4.04;52.09
77165;BME280;66140;50.280;18.660;2023-03-01T11:28:35;100093.34;;;4.01;52.82
77165;BME280;66140;50.280;18.660;2023-03-01T11:31:10;100106.97;;;4.18;51.86
77165;BME280;66140;50.280;18.660;2023-03-01T11:34:01;100098.25;;;4.16;51.14
77165;BME280;66140;50.280;18.660;2023-03-01T11:39:15;100094.88;;;4.11;50.52
77165;BME280;66140;50.280;18.660;2023-03-01T11:41:43;100105.34;;;4.13;49.75
77165;BME280;66140;50.280;18.660;2023-03-01T11:44:17;100099.19;;;4.15;51.98
77165;BME280;66140;50.280;18.660;2023-03-01T12:05:28;100070.47;;;4.44;49.54
77165;BME280;66140;50.280;18.660;2023-03-01T12:22:29;100066.06;;;4.47;50.45
77165;BME280;66140;50.280;18.660;2023-03-01T12:33:26;100058.34;;;4.39;50.56
77165;BME280;66140;50.280;18.660;2023-03-01T12:38:42;100044.50;;;4.31;49.83
77165;BME280;66140;50.280;18.660;2023-03-01T12:41:21;100047.81;;;4.40;50.08
77165;BME280;66140;50.280;18.660;2023-03-01T12:49:37;100041.34;;;4.54;50.37
77165;BME280;66140;50.280;18.660;2023-03-01T12:52:16;100028.31;;;4.49;50.47
77165;BME280;66140;50.280;18.660;2023-03-01T12:54:45;100021.25;;;4.51;50.86
77165;BME280;66140;50.280;18.660;2023-03-01T12:58:01;100025.34;;;4.63;50.54
77165;BME280;66140;50.280;18.660;2023-03-01T13:02:36;100006.69;;;4.73;50.33
77165;BME280;66140;50.280;18.660;2023-03-01T13:08:01;100002.28;;;4.74;50.22
77165;BME280;66140;50.280;18.660;2023-03-01T13:10:52;100010.28;;;4.69;50.11
77165;BME280;66140;50.280;18.660;2023-03-01T13:13:25;100001.63;;;4.66;50.15
77165;BME280;66140;50.280;18.660;2023-03-01T13:15:51;100003.56;;;4.58;50.20
77165;BME280;66140;50.280;18.660;2023-03-01T13:31:08;99994.25;;;4.80;49.71
77165;BME280;66140;50.280;18.660;2023-03-01T13:36:09;99991.53;;;4.83;49.65
77165;BME280;66140;50.280;18.660;2023-03-01T13:46:48;99981.00;;;5.15;47.35
77165;BME280;66140;50.280;18.660;2023-03-01T13:49:19;99978.44;;;5.12;47.47
77165;BME280;66140;50.280;18.660;2023-03-01T13:51:50;99976.50;;;5.19;46.29
77165;BME280;66140;50.280;18.660;2023-03-01T13:54:23;99977.25;;;5.24;46.56
77165;BME280;66140;50.280;18.660;2023-03-01T13:56:50;99966.78;;;5.22;46.60
77165;BME280;66140;50.280;18.660;2023-03-01T13:59:20;99960.03;;;5.12;47.21
77165;BME280;66140;50.280;18.660;2023-03-01T14:02:12;99967.72;;;5.20;46.46
77165;BME280;66140;50.280;18.660;2023-03-01T14:04:38;99965.00;;;5.23;46.37
77165;BME280;66140;50.280;18.660;2023-03-01T14:07:16;99955.25;;;5.27;46.19
77165;BME280;66140;50.280;18.660;2023-03-01T14:09:46;99958.16;;;5.17;46.98
77165;BME280;66140;50.280;18.660;2023-03-01T14:12:52;99947.75;;;5.13;48.12
77165;BME280;66140;50.280;18.660;2023-03-01T14:20:38;99951.38;;;5.09;48.13
77165;BME280;66140;50.280;18.660;2023-03-01T14:23:11;99948.81;;;5.06;47.76
77165;BME280;66140;50.280;18.660;2023-03-01T14:25:38;99963.75;;;5.05;48.42
77165;BME280;66140;50.280;18.660;2023-03-01T14:28:11;99953.88;;;5.13;46.88
77165;BME280;66140;50.280;18.660;2023-03-01T14:30:42;99941.78;;;5.06;47.09
77165;BME280;66140;50.280;18.660;2023-03-01T14:36:03;99951.63;;;5.00;47.89
77165;BME280;66140;50.280;18.660;2023-03-01T14:38:34;99934.91;;;5.02;47.57
77165;BME280;66140;50.280;18.660;2023-03-01T14:41:13;99937.88;;;4.90;48.40
77165;BME280;66140;50.280;18.660;2023-03-01T14:43:53;99941.50;;;4.86;47.94
77165;BME280;66140;50.280;18.660;2023-03-01T14:46:43;99926.63;;;4.85;47.90
77165;BME280;66140;50.280;18.660;2023-03-01T14:51:39;99924.22;;;5.08;42.21
77165;BME280;66140;50.280;18.660;2023-03-01T14:54:32;99927.28;;;5.24;40.81
77165;BME280;66140;50.280;18.660;2023-03-01T14:57:03;99925.22;;;5.34;39.96
77165;BME280;66140;50.280;18.660;2023-03-01T14:59:28;99921.50;;;5.41;40.44
77165;BME280;66140;50.280;18.660;2023-03-01T15:01:56;99915.22;;;5.45;38.45
77165;BME280;66140;50.280;18.660;2023-03-01T15:04:23;99930.31;;;5.40;38.97
77165;BME280;66140;50.280;18.660;2023-03-01T15:06:54;99921.66;;;5.36;39.69
77165;BME280;66140;50.280;18.660;2023-03-01T15:09:21;99915.88;;;5.23;40.81
77165;BME280;66140;50.280;18.660;2023-03-01T15:11:48;99916.13;;;5.14;40.88
77165;BME280;66140;50.280;18.660;2023-03-01T15:14:42;99925.09;;;5.07;40.90
77165;BME280;66140;50.280;18.660;2023-03-01T15:17:38;99926.28;;;4.97;41.82
77165;BME280;66140;50.280;18.660;2023-03-01T15:20:15;99910.47;;;4.99;40.25
77165;BME280;66140;50.280;18.660;2023-03-01T15:22:55;99933.66;;;5.15;38.83
77165;BME280;66140;50.280;18.660;2023-03-01T15:25:33;99926.63;;;5.16;38.34
77165;BME280;66140;50.280;18.660;2023-03-01T15:28:00;99918.56;;;5.22;38.34
77165;BME280;66140;50.280;18.660;2023-03-01T15:30:34;99911.59;;;5.19;39.04
77165;BME280;66140;50.280;18.660;2023-03-01T15:35:53;99921.25;;;4.88;40.37
77165;BME280;66140;50.280;18.660;2023-03-01T15:41:45;99920.03;;;4.69;39.80
77165;BME280;66140;50.280;18.660;2023-03-01T15:44:30;99927.41;;;4.56;40.91
77165;BME280;66140;50.280;18.660;2023-03-01T15:46:56;99929.44;;;4.45;41.36
77165;BME280;66140;50.280;18.660;2023-03-01T15:49:38;99932.22;;;4.39;41.20
77165;BME280;66140;50.280;18.660;2023-03-01T15:52:08;99934.13;;;4.34;41.61
77165;BME280;66140;50.280;18.660;2023-03-01T15:54:35;99924.91;;;4.16;41.62
77165;BME280;66140;50.280;18.660;2023-03-01T15:57:00;99919.75;;;4.13;41.45
77165;BME280;66140;50.280;18.660;2023-03-01T15:59:26;99936.56;;;4.06;41.28
77165;BME280;66140;50.280;18.660;2023-03-01T16:01:51;99931.56;;;3.95;41.84
77165;BME280;66140;50.280;18.660;2023-03-01T16:04:18;99916.84;;;3.90;42.14
77165;BME280;66140;50.280;18.660;2023-03-01T16:06:51;99924.66;;;3.91;41.81
77165;BME280;66140;50.280;18.660;2023-03-01T16:09:24;99925.06;;;3.75;41.37
77165;BME280;66140;50.280;18.660;2023-03-01T16:11:51;99940.25;;;3.60;42.17
77165;BME280;66140;50.280;18.660;2023-03-01T16:14:17;99922.41;;;3.36;43.19
77165;BME280;66140;50.280;18.660;2023-03-01T16:16:43;99917.34;;;3.27;43.05
77165;BME280;66140;50.280;18.660;2023-03-01T16:19:09;99929.19;;;3.05;44.21
77165;BME280;66140;50.280;18.660;2023-03-01T16:21:35;99950.44;;;2.91;45.15
77165;BME280;66140;50.280;18.660;2023-03-01T16:24:00;99936.88;;;2.69;46.26
77165;BME280;66140;50.280;18.660;2023-03-01T16:26:26;99934.66;;;2.48;47.37
77165;BME280;66140;50.280;18.660;2023-03-01T16:28:54;99937.53;;;2.33;48.52
77165;BME280;66140;50.280;18.660;2023-03-01T16:31:20;99941.25;;;2.20;49.19
77165;BME280;66140;50.280;18.660;2023-03-01T16:33:46;99948.53;;;2.03;50.00
77165;BME280;66140;50.280;18.660;2023-03-01T16:36:14;99953.09;;;1.90;50.24
77165;BME280;66140;50.280;18.660;2023-03-01T16:38:40;99949.81;;;1.74;51.85
77165;BME280;66140;50.280;18.660;2023-03-01T16:41:11;99952.66;;;1.59;52.53
77165;BME280;66140;50.280;18.660;2023-03-01T16:43:37;99952.06;;;1.39;53.42
77165;BME280;66140;50.280;18.660;2023-03-01T16:46:16;99951.38;;;1.23;53.87
77165;BME280;66140;50.280;18.660;2023-03-01T16:48:43;99948.03;;;1.13;55.41
77165;BME280;66140;50.280;18.660;2023-03-01T16:51:09;99939.47;;;1.02;56.60
77165;BME280;66140;50.280;18.660;2023-03-01T16:53:35;99952.63;;;0.92;58.14
77165;BME280;66140;50.280;18.660;2023-03-01T16:56:03;99958.81;;;0.85;57.99
77165;BME280;66140;50.280;18.660;2023-03-01T16:58:29;99958.94;;;0.74;58.82
77165;BME280;66140;50.280;18.660;2023-03-01T17:00:55;99952.13;;;0.61;59.65
77165;BME280;66140;50.280;18.660;2023-03-01T17:03:24;99960.00;;;0.56;59.98
77165;BME280;66140;50.280;18.660;2023-03-01T17:05:50;99961.81;;;0.45;60.60
77165;BME280;66140;50.280;18.660;2023-03-01T17:08:16;99962.78;;;0.36;61.01
77165;BME280;66140;50.280;18.660;2023-03-01T17:10:42;99958.50;;;0.31;60.82
77165;BME280;66140;50.280;18.660;2023-03-01T17:13:11;99966.38;;;0.22;61.34
77165;BME280;66140;50.280;18.660;2023-03-01T17:15:41;99975.13;;;0.16;62.45
77165;BME280;66140;50.280;18.660;2023-03-01T17:18:07;99970.03;;;0.04;62.67
77165;BME280;66140;50.280;18.660;2023-03-01T17:20:34;99983.06;;;0.01;63.25
77165;BME280;66140;50.280;18.660;2023-03-01T17:22:59;99985.75;;;-0.08;63.62
77165;BME280;66140;50.280;18.660;2023-03-01T17:25:25;99974.56;;;-0.21;63.49
77165;BME280;66140;50.280;18.660;2023-03-01T17:27:50;99981.53;;;-0.26;64.31
77165;BME280;66140;50.280;18.660;2023-03-01T17:30:16;99972.06;;;-0.41;65.29
77165;BME280;66140;50.280;18.660;2023-03-01T17:32:42;99972.09;;;-0.47;65.06
77165;BME280;66140;50.280;18.660;2023-03-01T17:35:08;99981.69;;;-0.52;66.49
77165;BME280;66140;50.280;18.660;2023-03-01T17:37:36;99979.94;;;-0.57;66.04
77165;BME280;66140;50.280;18.660;2023-03-01T17:40:04;99985.22;;;-0.65;66.25
77165;BME280;66140;50.280;18.660;2023-03-01T17:42:30;99983.50;;;-0.64;67.68
77165;BME280;66140;50.280;18.660;2023-03-01T17:44:55;99981.75;;;-0.68;67.49
77165;BME280;66140;50.280;18.660;2023-03-01T17:47:21;99986.16;;;-0.78;67.65
77165;BME280;66140;50.280;18.660;2023-03-01T17:49:47;99980.97;;;-0.87;67.61
77165;BME280;66140;50.280;18.660;2023-03-01T17:52:12;99984.47;;;-0.91;68.21
77165;BME280;66140;50.280;18.660;2023-03-01T17:54:38;99994.00;;;-0.93;68.22
77165;BME280;66140;50.280;18.660;2023-03-01T17:57:04;99992.31;;;-0.99;69.12
77165;BME280;66140;50.280;18.660;2023-03-01T17:59:29;99980.19;;;-1.10;68.99
77165;BME280;66140;50.280;18.660;2023-03-01T18:01:57;99981.94;;;-1.15;69.85
77165;BME280;66140;50.280;18.660;2023-03-01T18:04:26;99979.34;;;-1.18;69.65
77165;BME280;66140;50.280;18.660;2023-03-01T18:06:51;99979.34;;;-1.25;70.10
77165;BME280;66140;50.280;18.660;2023-03-01T18:09:17;99980.22;;;-1.32;70.91
77165;BME280;66140;50.280;18.660;2023-03-01T18:11:42;99980.25;;;-1.36;71.87
77165;BME280;66140;50.280;18.660;2023-03-01T18:14:08;99979.38;;;-1.46;72.56
77165;BME280;66140;50.280;18.660;2023-03-01T18:16:33;99985.47;;;-1.53;71.49
77165;BME280;66140;50.280;18.660;2023-03-01T18:19:00;99979.41;;;-1.58;72.46
77165;BME280;66140;50.280;18.660;2023-03-01T18:21:27;99988.94;;;-1.60;72.59
77165;BME280;66140;50.280;18.660;2023-03-01T18:23:53;99987.22;;;-1.69;73.61
77165;BME280;66140;50.280;18.660;2023-03-01T18:26:19;99993.28;;;-1.71;73.72
77165;BME280;66140;50.280;18.660;2023-03-01T18:28:47;99981.16;;;-1.81;74.34
77165;BME280;66140;50.280;18.660;2023-03-01T18:31:16;99977.69;;;-1.86;74.96
77165;BME280;66140;50.280;18.660;2023-03-01T18:33:43;99983.78;;;-1.86;75.95
77165;BME280;66140;50.280;18.660;2023-03-01T18:36:18;99980.28;;;-1.91;76.53
77165;BME280;66140;50.280;18.660;2023-03-01T18:38:44;99994.16;;;-1.84;75.88
77165;BME280;66140;50.280;18.660;2023-03-01T18:41:09;99991.56;;;-1.87;75.46
77165;BME280;66140;50.280;18.660;2023-03-01T18:43:35;99990.69;;;-1.88;76.18
77165;BME280;66140;50.280;18.660;2023-03-01T18:46:00;99989.84;;;-1.87;75.91
77165;BME280;66140;50.280;18.660;2023-03-01T18:48:29;99975.94;;;-1.96;76.89
77165;BME280;66140;50.280;18.660;2023-03-01T18:50:55;99975.97;;;-1.99;76.72
77165;BME280;66140;50.280;18.660;2023-03-01T18:53:20;99971.63;;;-1.99;77.10
77165;BME280;66140;50.280;18.660;2023-03-01T18:55:46;99969.00;;;-2.04;77.90
77165;BME280;66140;50.280;18.660;2023-03-01T18:58:11;99969.88;;;-2.03;77.56
77165;BME280;66140;50.280;18.660;2023-03-01T19:00:37;99976.84;;;-2.05;77.66
77165;BME280;66140;50.280;18.660;2023-03-01T19:03:03;99974.22;;;-2.07;78.16
77165;BME280;66140;50.280;18.660;2023-03-01T19:05:28;99975.09;;;-2.08;78.13
77165;BME280;66140;50.280;18.660;2023-03-01T19:07:54;99972.47;;;-2.08;78.64
77165;BME280;66140;50.280;18.660;2023-03-01T19:10:20;99974.22;;;-2.07;78.64
77165;BME280;66140;50.280;18.660;2023-03-01T19:12:45;99973.34;;;-2.07;78.76
77165;BME280;66140;50.280;18.660;2023-03-01T19:15:11;99970.75;;;-2.18;79.25
77165;BME280;66140;50.280;18.660;2023-03-01T19:17:36;99969.88;;;-2.20;80.01
77165;BME280;66140;50.280;18.660;2023-03-01T19:20:03;99978.56;;;-2.18;79.60
77165;BME280;66140;50.280;18.660;2023-03-01T19:22:28;99977.66;;;-2.21;79.54
77165;BME280;66140;50.280;18.660;2023-03-01T19:24:54;99979.41;;;-2.25;78.38
77165;BME280;66140;50.280;18.660;2023-03-01T19:27:19;99985.47;;;-2.26;78.41
77165;BME280;66140;50.280;18.660;2023-03-01T19:29:44;99980.25;;;-2.29;77.92
77165;BME280;66140;50.280;18.660;2023-03-01T19:32:10;99986.31;;;-2.27;77.69
77165;BME280;66140;50.280;18.660;2023-03-01T19:34:36;99988.91;;;-2.34;78.08
77165;BME280;66140;50.280;18.660;2023-03-01T19:37:02;99982.81;;;-2.36;78.83
77165;BME280;66140;50.280;18.660;2023-03-01T19:39:28;99993.22;;;-2.38;79.66
77165;BME280;66140;50.280;18.660;2023-03-01T19:41:55;99979.34;;;-2.46;80.44
77165;BME280;66140;50.280;18.660;2023-03-01T19:44:21;99981.94;;;-2.49;80.25
77165;BME280;66140;50.280;18.660;2023-03-01T19:46:52;99984.53;;;-2.49;80.57
77165;BME280;66140;50.280;18.660;2023-03-01T19:49:18;99967.22;;;-2.56;81.18
77165;BME280;66140;50.280;18.660;2023-03-01T19:51:44;99971.53;;;-2.58;81.43
77165;BME280;66140;50.280;18.660;2023-03-01T19:54:09;99968.03;;;-2.65;81.32